Aérodrome :
LOGIN :

S'inscrire | Disclaimer

   EN    FR    IT 

 










Légende :    VFR   VFR Marginal   IFR   IFR Intensif   IFR Très Intensif
Visi : 
Plafond : 
>= 8 km
>= 3000ft
5 à 8 km
1000 à 3000 ft
1500m à 5 km
500 à 1000 ft
800 à 1500m
200 à 500 ft
< 800m
< 200 ft
Symboles :   Orages  Brouillard  Fortes neiges  Fortes précipitations  Vent > 20 kt
SIGMETs :   Divers  Orages  Givrage  Turbulence  Onde Orograph.  Cendres Volcan.






- Altitude de l'aérodrome : 405 ft
- Code IATA : SUJ


LRSM - Satu Mare

DERNIER METAR :
  • 302000Z AUTO 36013KT 9999 -SN BKN160/// 01/M08 Q1021

METARs EXPIRÉS :
  • 301930Z AUTO 36013KT 9999 -SN FEW120/// BKN190/// 01/M07 Q1020
  • 301900Z AUTO 35013KT 9999 -SN BKN150/// 01/M07 Q1020
  • 301830Z AUTO 36013KT 9999 -SN FEW130/// BKN150/// 02/M07 Q1020
  • 301800Z AUTO 36012KT 9999 -SN SCT200/// 02/M07 Q1019
  • 301730Z AUTO 35009KT 9999 -SN NCD 02/M06 Q1019

TAF TAF LRSM
Valide du 30 à 15h jusqu'au 31 à 00h UTC


301400Z 3015/3024 34015KT 9999 BKN040



MET'MAP, la Météo Aéronautique d'un coup d'oeil ! - Copyright ORBIFLY Décembre 2007 - Disclaimer

ORBIFLY MET'MAP TEAM :

Programmation & Développement : Alexandra Zaïnal
Sur une idée originale de : Baudouin d'Aumeries
Assistance à la programmation : Marc-Olivier Méhu
Soutien technique & logistique : Manuel Goepfert

Contact : metmap@orbifly.com




SOURCES & CREDITS :

   NOAA